Time;durP1;ratioP1;P1;durP2;ratioP2;P2;SDS_P1;SDS_P2;PMS_P1;PMS_P2;Temp;Humidity;BMP_temperature;BMP_pressure;BME280_temperature;BME280_humidity;BME280_pressure;Samples;Min_cycle;Max_cycle;Signal;HPM_P1;HPM_P2
2023/07/07 00:01:01;;;;;;;4.40;2.03;;;18.90;95.30;;;;;;5070877;28;20101;-83
2023/07/07 00:03:27;;;;;;;2.97;1.67;;;18.90;95.00;;;;;;5071446;28;20093;-84
2023/07/07 00:05:53;;;;;;;3.67;2.20;;;18.90;95.20;;;;;;5071902;28;20064;-81
2023/07/07 00:08:18;;;;;;;3.20;1.90;;;18.80;95.50;;;;;;5072552;28;20016;-82
2023/07/07 00:10:44;;;;;;;3.70;2.00;;;18.70;95.70;;;;;;5075265;28;20025;-79
2023/07/07 00:13:11;;;;;;;3.83;1.90;;;18.60;95.70;;;;;;5073992;28;20504;-77
2023/07/07 00:15:42;;;;;;;4.35;2.30;;;18.70;96.00;;;;;;5074988;28;20449;-78
2023/07/07 00:18:09;;;;;;;4.57;2.05;;;18.60;95.90;;;;;;5074089;28;20361;-78
2023/07/07 00:20:35;;;;;;;2.97;2.30;;;18.60;96.10;;;;;;5073777;28;20040;-78
2023/07/07 00:23:01;;;;;;;4.85;2.30;;;18.70;96.20;;;;;;5074205;28;20031;-79
2023/07/07 00:25:26;;;;;;;4.63;2.40;;;18.60;96.10;;;;;;5073731;28;20396;-77
2023/07/07 00:27:52;;;;;;;4.07;1.90;;;18.60;96.40;;;;;;5070748;28;20032;-77
2023/07/07 00:30:17;;;;;;;4.65;2.13;;;18.50;96.90;;;;;;5072028;28;20029;-77
2023/07/07 00:32:43;;;;;;;3.53;2.08;;;18.60;96.70;;;;;;5072381;28;20043;-77
2023/07/07 00:35:09;;;;;;;4.13;1.77;;;18.50;96.70;;;;;;5073260;28;20058;-77
2023/07/07 00:37:35;;;;;;;5.28;2.05;;;18.40;96.90;;;;;;5072339;28;20478;-76
2023/07/07 00:40:02;;;;;;;4.45;2.38;;;18.40;96.90;;;;;;5073113;28;20381;-76
2023/07/07 00:42:28;;;;;;;3.40;2.22;;;18.40;97.10;;;;;;5072594;28;20031;-76
2023/07/07 00:45:13;;;;;;;3.78;1.90;;;18.40;97.00;;;;;;5071692;28;20036;-79
2023/07/07 00:47:54;;;;;;;5.15;2.08;;;18.40;97.30;;;;;;5070005;28;20031;-78
2023/07/07 00:50:21;;;;;;;;;;;18.40;97.30;;;;;;5071231;28;20091;-76
2023/07/07 00:52:48;;;;;;;3.25;1.50;;;18.40;97.40;;;;;;5073772;28;19966;-77
2023/07/07 00:55:25;;;;;;;5.78;2.00;;;18.30;97.30;;;;;;5072846;28;20453;-76
2023/07/07 00:57:51;;;;;;;4.35;1.80;;;18.20;97.30;;;;;;5073947;28;20036;-76
2023/07/07 01:00:17;;;;;;;2.78;1.88;;;18.20;97.70;;;;;;5071560;28;20354;-76
2023/07/07 01:02:55;;;;;;;3.92;2.17;;;18.20;97.60;;;;;;5072372;28;20016;-76
2023/07/07 01:05:28;;;;;;;5.50;2.20;;;18.10;97.60;;;;;;5070796;28;20059;-76
2023/07/07 01:07:59;;;;;;;5.85;2.15;;;18.10;97.80;;;;;;5073626;28;20016;-76
2023/07/07 01:10:24;;;;;;;4.90;1.97;;;18.10;97.70;;;;;;5072861;28;20483;-76
2023/07/07 01:12:51;;;;;;;5.80;1.63;;;18.10;98.10;;;;;;5073229;28;20328;-75
2023/07/07 01:15:17;;;;;;;2.88;1.52;;;18.00;97.70;;;;;;5072941;28;20024;-77
2023/07/07 01:18:20;;;;;;;4.85;2.22;;;18.00;97.80;;;;;;5072060;28;20445;-77
2023/07/07 01:21:01;;;;;;;7.60;2.10;;;18.00;98.10;;;;;;5000814;28;20089;-77
2023/07/07 01:24:00;;;;;;;3.42;1.95;;;18.00;98.10;;;;;;5070820;28;20013;-77
2023/07/07 01:26:47;;;;;;;6.30;2.20;;;18.00;98.30;;;;;;5071860;28;20020;-82
2023/07/07 01:29:46;;;;;;;3.72;2.08;;;18.00;98.00;;;;;;5070601;28;20024;-81
2023/07/07 01:32:21;;;;;;;3.17;2.00;;;18.00;98.30;;;;;;5069338;28;20220;-80
2023/07/07 01:34:47;;;;;;;5.10;2.30;;;17.90;98.60;;;;;;5062663;28;20029;-79
2023/07/07 01:37:13;;;;;;;3.70;1.90;;;17.90;98.90;;;;;;5072761;28;20458;-80
2023/07/07 01:39:41;;;;;;;4.28;2.00;;;17.80;99.10;;;;;;5071728;28;20027;-77
2023/07/07 01:42:34;;;;;;;5.03;1.83;;;17.80;99.50;;;;;;5070354;28;20021;-77
2023/07/07 01:45:14;;;;;;;5.03;2.17;;;17.80;99.20;;;;;;5069996;28;20048;-77
2023/07/07 01:47:49;;;;;;;2.72;1.90;;;17.80;99.30;;;;;;5073385;28;20025;-77
2023/07/07 01:50:24;;;;;;;3.30;2.15;;;17.80;99.20;;;;;;5072023;28;20351;-76
2023/07/07 01:52:57;;;;;;;7.35;2.35;;;17.80;99.50;;;;;;5080583;28;20450;-77
2023/07/07 01:55:31;;;;;;;3.97;1.92;;;17.70;99.40;;;;;;5075747;28;20024;-76
2023/07/07 01:58:00;;;;;;;3.92;2.03;;;17.70;99.60;;;;;;5073409;28;20469;-77
2023/07/07 02:00:28;;;;;;;6.30;1.98;;;17.70;99.80;;;;;;5072130;28;20031;-76
2023/07/07 02:02:56;;;;;;;6.53;2.00;;;17.60;99.90;;;;;;5072967;28;20036;-77
2023/07/07 02:05:23;;;;;;;3.20;2.20;;;17.60;99.80;;;;;;5071825;28;20182;-76
2023/07/07 02:07:49;;;;;;;6.68;2.45;;;17.60;99.90;;;;;;5071530;28;20024;-77
2023/07/07 02:10:14;;;;;;;4.85;2.20;;;17.50;99.90;;;;;;5073352;28;20449;-77
2023/07/07 02:12:40;;;;;;;4.07;2.08;;;17.50;99.90;;;;;;5072107;28;20023;-77
2023/07/07 02:15:06;;;;;;;4.13;2.15;;;17.50;99.90;;;;;;5071420;28;20338;-77
2023/07/07 02:17:32;;;;;;;5.55;2.15;;;17.50;99.90;;;;;;5073269;28;20019;-77
2023/07/07 02:19:58;;;;;;;4.45;2.30;;;17.50;99.90;;;;;;5071467;28;20025;-77
2023/07/07 02:22:23;;;;;;;5.30;2.53;;;17.50;99.90;;;;;;5071785;28;20031;-77
2023/07/07 02:24:49;;;;;;;4.57;2.50;;;17.60;99.90;;;;;;5072342;28;20048;-77
2023/07/07 02:27:15;;;;;;;6.20;2.70;;;17.60;99.90;;;;;;5072738;28;20060;-77
2023/07/07 02:29:40;;;;;;;4.57;2.40;;;17.50;99.90;;;;;;5071909;28;20457;-77
2023/07/07 02:32:07;;;;;;;3.50;2.25;;;17.50;99.90;;;;;;5071991;28;20027;-77
2023/07/07 02:34:32;;;;;;;5.40;2.60;;;17.50;99.90;;;;;;5088657;28;20028;-77
2023/07/07 02:36:58;;;;;;;4.30;2.53;;;17.30;99.90;;;;;;5072434;28;20365;-77
2023/07/07 02:39:25;;;;;;;3.78;2.25;;;17.30;99.90;;;;;;5071678;28;20027;-77
2023/07/07 02:41:51;;;;;;;7.25;2.70;;;17.30;99.90;;;;;;5071202;28;20537;-77
2023/07/07 02:44:17;;;;;;;3.80;2.47;;;17.20;99.90;;;;;;5071505;28;20072;-77
2023/07/07 02:46:44;;;;;;;6.07;2.70;;;17.30;99.90;;;;;;5072378;28;20031;-77
2023/07/07 02:49:10;;;;;;;4.03;2.35;;;17.20;99.90;;;;;;5072548;28;20031;-77
2023/07/07 02:51:36;;;;;;;10.15;2.72;;;17.20;99.90;;;;;;5073068;28;20066;-77
2023/07/07 02:54:01;;;;;;;4.68;2.42;;;17.20;99.90;;;;;;5070926;28;20103;-77
2023/07/07 02:56:27;;;;;;;4.07;2.30;;;17.20;99.90;;;;;;5071276;28;20036;-77
2023/07/07 02:58:53;;;;;;;5.07;2.75;;;17.10;99.90;;;;;;5070851;28;20020;-78
2023/07/07 03:01:19;;;;;;;4.57;2.53;;;17.10;99.90;;;;;;5071318;28;20023;-77
2023/07/07 03:03:49;;;;;;;6.10;2.70;;;17.00;99.90;;;;;;5072494;28;20047;-78
2023/07/07 03:06:18;;;;;;;5.57;2.47;;;16.90;99.90;;;;;;5071360;28;20020;-77
2023/07/07 03:08:44;;;;;;;4.88;2.53;;;17.00;99.90;;;;;;5071390;28;20029;-77
2023/07/07 03:11:12;;;;;;;3.88;2.45;;;16.90;99.90;;;;;;5070827;28;20112;-77
2023/07/07 03:13:38;;;;;;;6.63;2.80;;;17.00;99.90;;;;;;5072693;28;20021;-77
2023/07/07 03:16:12;;;;;;;4.53;2.70;;;17.00;99.90;;;;;;5072070;28;20032;-77
2023/07/07 03:18:39;;;;;;;4.05;2.30;;;17.00;99.90;;;;;;5071338;28;20031;-77
2023/07/07 03:21:05;;;;;;;5.03;2.80;;;17.00;99.90;;;;;;5070786;28;20025;-77
2023/07/07 03:23:30;;;;;;;2.95;2.20;;;16.90;99.90;;;;;;5072188;28;20093;-77
2023/07/07 03:26:04;;;;;;;5.18;2.70;;;16.90;99.90;;;;;;5070662;28;20028;-78
2023/07/07 03:28:30;;;;;;;4.93;2.67;;;16.90;99.90;;;;;;5072843;28;20082;-77
2023/07/07 03:30:55;;;;;;;5.25;2.58;;;16.90;99.90;;;;;;5070749;28;20020;-78
2023/07/07 03:33:21;;;;;;;4.18;2.25;;;16.90;99.90;;;;;;5071345;28;20021;-77
2023/07/07 03:35:49;;;;;;;5.07;2.38;;;16.90;99.90;;;;;;5072462;28;20353;-77
2023/07/07 03:38:15;;;;;;;4.63;2.80;;;16.90;99.90;;;;;;5071120;28;20411;-77
2023/07/07 03:40:47;;;;;;;5.20;2.60;;;16.90;99.90;;;;;;5072298;28;20024;-77
2023/07/07 03:43:13;;;;;;;5.35;2.90;;;16.90;99.90;;;;;;5071182;28;20024;-77
2023/07/07 03:45:40;;;;;;;4.32;2.42;;;16.80;99.90;;;;;;5074469;28;20139;-77
2023/07/07 03:48:06;;;;;;;5.88;2.60;;;16.70;99.90;;;;;;5074434;28;20115;-78
2023/07/07 03:50:32;;;;;;;4.95;2.67;;;16.80;99.90;;;;;;5074749;28;20433;-77
2023/07/07 03:52:57;;;;;;;4.32;2.65;;;16.80;99.90;;;;;;5074211;28;20016;-78
2023/07/07 03:55:23;;;;;;;3.80;2.28;;;16.80;99.90;;;;;;5074551;28;20120;-78
2023/07/07 03:57:48;;;;;;;7.70;2.60;;;16.80;99.90;;;;;;5075745;28;20107;-78
2023/07/07 04:00:14;;;;;;;5.78;2.42;;;16.70;99.90;;;;;;5074502;28;20016;-77
2023/07/07 04:02:40;;;;;;;7.35;3.20;;;16.70;99.90;;;;;;5074692;28;20025;-77
2023/07/07 04:05:05;;;;;;;4.72;2.30;;;16.70;99.90;;;;;;5073873;28;20032;-77
2023/07/07 04:07:31;;;;;;;8.27;2.50;;;16.60;99.90;;;;;;5074509;28;20111;-77
2023/07/07 04:09:57;;;;;;;6.95;2.60;;;16.70;99.90;;;;;;5073989;28;20441;-78
2023/07/07 04:12:22;;;;;;;5.45;2.35;;;16.60;99.90;;;;;;5074400;28;20029;-77
2023/07/07 04:14:48;;;;;;;6.93;2.40;;;16.60;99.90;;;;;;5074191;28;20499;-77
2023/07/07 04:17:13;;;;;;;4.78;2.42;;;16.60;99.90;;;;;;5075108;28;20484;-77
2023/07/07 04:19:39;;;;;;;5.40;2.25;;;16.60;99.90;;;;;;5074397;28;20070;-77
2023/07/07 04:22:05;;;;;;;4.00;2.40;;;16.50;99.90;;;;;;5073694;28;20450;-77
2023/07/07 04:24:30;;;;;;;4.32;2.20;;;16.50;99.90;;;;;;5074920;28;20048;-77
2023/07/07 04:26:56;;;;;;;6.22;2.38;;;16.50;99.90;;;;;;5074662;28;20072;-77
2023/07/07 04:29:21;;;;;;;3.17;2.20;;;16.50;99.90;;;;;;5073615;28;20443;-77
2023/07/07 04:31:47;;;;;;;2.97;2.08;;;16.50;99.90;;;;;;5073924;28;20020;-77
2023/07/07 04:34:15;;;;;;;5.47;2.45;;;16.60;99.90;;;;;;5073398;28;20028;-77
2023/07/07 04:36:41;;;;;;;4.35;2.30;;;16.50;99.90;;;;;;5074159;28;20366;-77
2023/07/07 04:39:07;;;;;;;3.78;2.25;;;16.60;99.90;;;;;;5073272;28;20178;-76
2023/07/07 04:41:33;;;;;;;4.68;1.98;;;16.60;99.90;;;;;;5073501;28;20027;-77
2023/07/07 04:44:00;;;;;;;3.72;2.13;;;16.70;99.90;;;;;;5074131;28;20128;-76
2023/07/07 04:46:28;;;;;;;3.72;2.05;;;16.80;99.90;;;;;;5074984;28;20029;-76
2023/07/07 04:48:54;;;;;;;4.63;2.35;;;16.80;99.90;;;;;;5074007;28;20041;-77
2023/07/07 04:51:20;;;;;;;3.20;2.08;;;16.80;99.90;;;;;;5074930;28;20489;-76
2023/07/07 04:53:46;;;;;;;3.97;2.33;;;16.70;99.90;;;;;;5073586;28;20373;-76
2023/07/07 04:56:19;;;;;;;4.18;2.25;;;16.70;99.90;;;;;;5071142;28;20035;-76
2023/07/07 04:58:48;;;;;;;4.25;2.63;;;16.80;99.90;;;;;;5077814;28;20032;-77
2023/07/07 05:01:17;;;;;;;5.00;2.00;;;16.80;99.90;;;;;;5083471;28;20480;-76
2023/07/07 05:03:44;;;;;;;4.30;2.35;;;16.90;99.90;;;;;;5072672;28;20381;-76
2023/07/07 05:06:11;;;;;;;3.58;2.22;;;16.90;99.90;;;;;;5073546;28;20024;-76
2023/07/07 05:08:41;;;;;;;4.57;1.98;;;17.00;99.90;;;;;;5072712;28;20016;-76
2023/07/07 05:11:09;;;;;;;5.55;2.13;;;17.10;99.90;;;;;;5072081;28;20103;-76
2023/07/07 05:13:35;;;;;;;3.33;2.00;;;17.00;99.90;;;;;;5072720;28;20450;-76
2023/07/07 05:16:07;;;;;;;3.53;2.38;;;17.00;99.90;;;;;;5073319;28;20035;-76
2023/07/07 05:18:33;;;;;;;4.38;2.03;;;17.00;99.90;;;;;;5072696;28;20454;-76
2023/07/07 05:20:59;;;;;;;4.85;2.47;;;17.10;99.90;;;;;;5073103;28;20024;-75
2023/07/07 05:23:25;;;;;;;4.85;2.20;;;17.00;99.90;;;;;;5072619;28;20381;-76
2023/07/07 05:25:51;;;;;;;5.95;2.10;;;17.10;99.90;;;;;;5072259;28;20032;-76
2023/07/07 05:28:18;;;;;;;6.72;2.20;;;17.10;99.90;;;;;;5072363;28;20028;-76
2023/07/07 05:30:43;;;;;;;5.07;2.30;;;17.10;99.90;;;;;;5073564;28;20024;-76
2023/07/07 05:33:10;;;;;;;5.22;2.00;;;17.20;99.90;;;;;;5071810;28;20028;-76
2023/07/07 05:35:35;;;;;;;5.75;2.25;;;17.20;99.90;;;;;;5072675;28;20051;-76
2023/07/07 05:38:02;;;;;;;4.53;2.42;;;17.30;99.90;;;;;;5071622;28;20445;-76
2023/07/07 05:40:28;;;;;;;4.15;2.08;;;17.30;99.90;;;;;;5073509;28;20020;-76
2023/07/07 05:42:54;;;;;;;6.05;2.40;;;17.40;99.90;;;;;;5071638;28;20017;-77
2023/07/07 05:45:23;;;;;;;4.43;2.28;;;17.40;99.90;;;;;;5070816;28;20050;-77
2023/07/07 05:47:49;;;;;;;5.85;1.98;;;17.40;99.90;;;;;;5071886;28;20369;-75
2023/07/07 05:50:15;;;;;;;4.50;2.45;;;17.50;99.90;;;;;;5072836;28;20017;-76
2023/07/07 05:52:40;;;;;;;4.30;1.85;;;17.50;99.90;;;;;;5071093;28;20027;-76
2023/07/07 05:55:06;;;;;;;5.20;2.17;;;17.60;99.90;;;;;;5071139;28;20031;-77
2023/07/07 05:57:32;;;;;;;4.45;1.88;;;17.60;99.90;;;;;;5069235;28;20028;-76
2023/07/07 05:59:57;;;;;;;4.53;2.08;;;17.70;99.90;;;;;;5069222;28;20107;-77
2023/07/07 06:02:23;;;;;;;7.30;2.38;;;17.70;99.90;;;;;;5072856;28;20450;-76
2023/07/07 06:04:49;;;;;;;4.65;1.90;;;17.80;99.90;;;;;;5071710;28;20150;-76
2023/07/07 06:07:14;;;;;;;4.25;1.77;;;17.80;99.90;;;;;;5071460;28;20177;-76
2023/07/07 06:09:40;;;;;;;4.78;1.90;;;17.90;99.90;;;;;;5071371;28;20028;-76
2023/07/07 06:12:06;;;;;;;4.75;2.10;;;17.90;99.90;;;;;;5070114;28;20019;-76
2023/07/07 06:14:32;;;;;;;3.90;2.10;;;18.00;99.90;;;;;;5072571;28;20044;-76
2023/07/07 06:16:57;;;;;;;3.60;1.73;;;18.10;99.90;;;;;;5070793;28;20090;-77
2023/07/07 06:19:23;;;;;;;4.65;1.77;;;18.10;99.90;;;;;;5071545;28;20450;-77
2023/07/07 06:21:48;;;;;;;4.32;1.88;;;18.20;99.90;;;;;;5071544;28;20052;-77
2023/07/07 06:24:14;;;;;;;4.68;2.20;;;18.20;99.90;;;;;;5070845;28;20021;-77
2023/07/07 06:26:40;;;;;;;5.57;1.95;;;18.20;99.90;;;;;;5072407;28;20028;-77
2023/07/07 06:29:06;;;;;;;2.53;1.80;;;18.30;99.90;;;;;;5071049;28;20474;-76
2023/07/07 06:31:32;;;;;;;4.47;1.80;;;18.40;99.90;;;;;;5071825;28;20029;-77
2023/07/07 06:33:57;;;;;;;4.55;2.03;;;18.40;99.90;;;;;;5070766;28;20016;-77
2023/07/07 06:36:23;;;;;;;4.95;2.30;;;18.50;99.90;;;;;;5071313;28;20531;-77
2023/07/07 06:38:49;;;;;;;3.97;2.05;;;18.50;99.90;;;;;;5071416;28;20074;-77
2023/07/07 06:41:20;;;;;;;5.45;2.42;;;18.60;99.90;;;;;;5070771;28;20044;-78
2023/07/07 06:43:45;;;;;;;2.72;1.85;;;18.60;99.90;;;;;;5071137;28;20048;-78
2023/07/07 06:46:13;;;;;;;4.70;2.40;;;18.60;99.80;;;;;;5070457;28;20052;-77
2023/07/07 06:48:39;;;;;;;3.30;2.13;;;18.70;99.90;;;;;;5071316;28;20016;-77
2023/07/07 06:51:04;;;;;;;4.15;1.77;;;18.70;99.90;;;;;;5070529;28;20531;-77
2023/07/07 06:53:30;;;;;;;2.58;1.90;;;18.80;99.70;;;;;;5071924;28;20024;-77
2023/07/07 06:55:56;;;;;;;4.13;1.70;;;18.80;99.40;;;;;;5071778;28;20036;-77
2023/07/07 06:58:22;;;;;;;2.50;1.55;;;18.90;99.20;;;;;;5070671;28;20052;-77
2023/07/07 07:00:47;;;;;;;4.80;1.88;;;18.90;99.40;;;;;;5070034;28;20023;-77
2023/07/07 07:03:13;;;;;;;5.47;1.65;;;19.00;99.30;;;;;;5070000;28;20028;-77
2023/07/07 07:05:40;;;;;;;3.83;1.77;;;19.00;98.90;;;;;;5072160;28;20032;-76
2023/07/07 07:08:06;;;;;;;4.63;1.90;;;19.00;98.90;;;;;;5071712;28;20027;-77
2023/07/07 07:10:32;;;;;;;5.47;2.25;;;19.10;99.30;;;;;;5072164;28;20096;-77
2023/07/07 07:12:57;;;;;;;5.93;1.65;;;19.20;98.90;;;;;;5070336;28;20115;-74
2023/07/07 07:15:23;;;;;;;5.35;2.20;;;19.20;98.70;;;;;;5070870;28;20024;-76
2023/07/07 07:17:48;;;;;;;3.70;1.73;;;19.30;98.60;;;;;;5071416;28;20024;-75
2023/07/07 07:20:14;;;;;;;3.33;1.58;;;19.30;98.40;;;;;;5075470;28;20283;-75
2023/07/07 07:22:40;;;;;;;3.58;1.65;;;19.40;98.40;;;;;;5075802;28;20016;-75
2023/07/07 07:25:08;;;;;;;3.55;1.85;;;19.50;98.50;;;;;;5073934;28;20036;-75
2023/07/07 07:27:33;;;;;;;3.25;1.67;;;19.50;98.20;;;;;;5074647;28;20028;-75
2023/07/07 07:29:59;;;;;;;4.32;2.22;;;19.60;98.00;;;;;;5074186;28;20031;-74
2023/07/07 07:32:24;;;;;;;3.03;1.85;;;19.60;98.20;;;;;;5074584;28;20055;-75
2023/07/07 07:34:50;;;;;;;9.20;2.00;;;19.70;98.00;;;;;;5074860;28;20024;-75
2023/07/07 07:37:16;;;;;;;7.80;1.77;;;19.70;97.90;;;;;;5074159;28;20039;-75
2023/07/07 07:39:42;;;;;;;2.67;1.73;;;19.80;97.90;;;;;;5075660;28;20099;-75
2023/07/07 07:42:07;;;;;;;5.70;2.33;;;19.90;97.50;;;;;;5073905;28;20373;-76
2023/07/07 07:44:33;;;;;;;3.88;1.73;;;19.90;97.00;;;;;;5075399;28;20051;-76
2023/07/07 07:46:59;;;;;;;3.28;2.25;;;20.00;97.00;;;;;;5073789;28;20166;-75
2023/07/07 07:49:27;;;;;;;5.38;1.75;;;20.00;96.80;;;;;;5075773;28;20024;-75
2023/07/07 07:51:53;;;;;;;4.57;1.83;;;20.10;96.80;;;;;;5074251;28;20441;-75
2023/07/07 07:54:21;;;;;;;3.63;1.85;;;20.10;97.40;;;;;;5073454;28;20021;-75
2023/07/07 07:56:47;;;;;;;5.47;2.05;;;20.10;97.30;;;;;;5073829;28;20036;-75
2023/07/07 07:59:13;;;;;;;3.13;2.00;;;20.20;96.60;;;;;;5073694;28;20070;-76
2023/07/07 08:01:39;;;;;;;3.42;1.83;;;20.20;96.80;;;;;;5072235;28;20036;-75
2023/07/07 08:04:06;;;;;;;4.32;1.90;;;20.20;96.80;;;;;;5074236;28;20431;-76
2023/07/07 08:06:32;;;;;;;3.08;1.55;;;20.20;97.30;;;;;;5073779;28;20036;-75
2023/07/07 08:08:58;;;;;;;4.45;2.08;;;20.30;96.40;;;;;;5070510;28;20020;-75
2023/07/07 08:11:46;;;;;;;6.10;1.88;;;20.40;96.10;;;;;;5073727;28;20342;-76
2023/07/07 08:14:14;;;;;;;4.43;2.30;;;20.40;95.70;;;;;;5072102;28;20032;-77
2023/07/07 08:16:39;;;;;;;4.80;1.52;;;20.50;96.00;;;;;;5073034;28;20024;-76
2023/07/07 08:19:05;;;;;;;4.00;1.75;;;20.50;96.30;;;;;;5072871;28;20020;-76
2023/07/07 08:21:31;;;;;;;3.13;1.70;;;20.60;96.10;;;;;;5073613;28;20035;-76
2023/07/07 08:23:57;;;;;;;7.50;1.92;;;20.70;95.80;;;;;;5073190;28;20032;-77
2023/07/07 08:26:23;;;;;;;3.88;1.73;;;20.70;95.50;;;;;;5072462;28;20025;-76
2023/07/07 08:28:49;;;;;;;4.20;1.95;;;20.80;95.40;;;;;;5073142;28;20461;-77
2023/07/07 08:31:15;;;;;;;4.63;2.63;;;20.90;95.40;;;;;;5073092;28;20028;-76
2023/07/07 08:33:43;;;;;;;5.22;1.90;;;20.80;94.80;;;;;;5072815;28;20020;-77
2023/07/07 08:36:09;;;;;;;3.95;1.77;;;20.90;94.90;;;;;;5073649;28;20331;-77
2023/07/07 08:38:35;;;;;;;3.83;1.98;;;20.90;95.70;;;;;;5074585;28;20130;-77
2023/07/07 08:41:01;;;;;;;2.42;1.83;;;21.00;95.30;;;;;;5072624;28;20069;-77
2023/07/07 08:43:29;;;;;;;6.13;2.08;;;21.00;94.60;;;;;;5073002;28;20021;-77
2023/07/07 08:46:06;;;;;;;4.93;2.10;;;21.10;95.00;;;;;;5072832;28;20041;-75
2023/07/07 08:48:43;;;;;;;8.00;2.55;;;21.10;95.30;;;;;;5073706;28;20031;-77
2023/07/07 08:51:20;;;;;;;6.80;2.13;;;21.20;95.50;;;;;;5073330;28;20024;-75
2023/07/07 08:54:23;;;;;;;3.72;2.55;;;21.30;95.50;;;;;;5070054;28;20026;-75
2023/07/07 08:56:57;;;;;;;4.65;2.30;;;21.40;95.00;;;;;;5073132;28;20024;-77
2023/07/07 08:59:44;;;;;;;6.88;2.40;;;21.50;95.00;;;;;;5073643;28;20094;-77
2023/07/07 09:02:21;;;;;;;4.97;2.63;;;21.50;94.80;;;;;;5068303;28;20074;-76
2023/07/07 09:05:04;;;;;;;5.00;1.98;;;21.50;95.00;;;;;;5071909;28;20084;-77
2023/07/07 09:08:08;;;;;;;9.00;2.20;;;21.60;94.50;;;;;;5072654;28;20032;-77
2023/07/07 09:10:34;;;;;;;4.38;2.53;;;21.60;94.70;;;;;;5072345;28;20024;-77
2023/07/07 09:13:08;;;;;;;8.73;2.67;;;21.70;94.40;;;;;;5072380;28;20192;-77
2023/07/07 09:15:41;;;;;;;5.57;2.40;;;21.70;94.10;;;;;;5072477;28;20036;-75
2023/07/07 09:18:33;;;;;;;4.05;2.28;;;21.70;94.20;;;;;;5067806;28;20373;-75
2023/07/07 09:21:00;;;;;;;;;;;21.90;94.40;;;;;;5070227;28;20021;-75
2023/07/07 09:23:34;;;;;;;5.95;2.30;;;21.90;93.80;;;;;;5073530;28;19907;-75
2023/07/07 09:26:18;;;;;;;3.88;2.55;;;22.00;93.90;;;;;;5072218;28;20457;-76
2023/07/07 09:28:47;;;;;;;7.03;2.38;;;22.10;94.30;;;;;;5062788;28;20042;-74
2023/07/07 09:31:25;;;;;;;4.78;2.50;;;22.10;93.50;;;;;;5070903;28;20039;-77
2023/07/07 09:33:52;;;;;;;4.90;2.55;;;22.20;93.40;;;;;;5071521;28;20021;-77
2023/07/07 09:36:59;;;;;;;3.53;1.90;;;22.20;93.20;;;;;;5071800;28;20101;-77
2023/07/07 09:39:27;;;;;;;4.88;2.30;;;22.30;93.60;;;;;;5068452;28;20511;-76
2023/07/07 09:42:15;;;;;;;6.00;2.65;;;22.40;93.10;;;;;;5071193;28;20087;-76
2023/07/07 09:45:12;;;;;;;5.28;2.40;;;22.50;93.10;;;;;;5061951;28;20040;-77
2023/07/07 09:48:19;;;;;;;8.38;2.25;;;22.60;92.70;;;;;;5071991;28;20183;-78
2023/07/07 09:50:44;;;;;;;5.32;2.40;;;22.60;92.50;;;;;;5068352;28;20048;-77
2023/07/07 09:53:21;;;;;;;4.40;2.40;;;22.60;92.60;;;;;;5071227;28;20485;-78
2023/07/07 09:55:48;;;;;;;3.28;2.47;;;22.70;92.40;;;;;;5071492;28;20346;-77
2023/07/07 09:58:15;;;;;;;7.65;2.80;;;22.70;92.10;;;;;;5069511;28;20391;-78
2023/07/07 10:00:44;;;;;;;5.05;2.60;;;22.60;91.80;;;;;;5072324;28;20388;-77
2023/07/07 10:03:28;;;;;;;4.30;2.40;;;22.70;91.90;;;;;;5077282;28;20016;-77
2023/07/07 10:05:55;;;;;;;4.35;2.40;;;22.90;91.90;;;;;;5070613;28;20029;-77
2023/07/07 10:08:21;;;;;;;5.78;2.42;;;22.90;91.80;;;;;;5072322;28;20023;-77
2023/07/07 10:10:57;;;;;;;5.35;2.63;;;23.00;91.70;;;;;;5071152;28;20372;-77
2023/07/07 10:13:23;;;;;;;5.13;2.17;;;23.10;91.40;;;;;;5070938;28;20115;-78
2023/07/07 10:15:57;;;;;;;4.55;2.80;;;23.20;91.00;;;;;;5072162;28;20115;-79
2023/07/07 10:18:26;;;;;;;5.10;2.70;;;23.20;90.80;;;;;;5072212;28;20024;-77
2023/07/07 10:20:54;;;;;;;5.18;2.83;;;23.30;90.80;;;;;;5073077;28;20028;-77
2023/07/07 10:23:20;;;;;;;4.22;2.88;;;23.30;90.70;;;;;;5070814;28;20035;-77
2023/07/07 10:25:46;;;;;;;7.18;2.97;;;23.40;90.10;;;;;;5070947;28;20028;-78
2023/07/07 10:28:15;;;;;;;4.15;2.30;;;23.60;89.80;;;;;;5072354;28;20147;-78
2023/07/07 10:30:42;;;;;;;4.55;2.88;;;23.70;89.90;;;;;;5073423;28;20012;-79
2023/07/07 10:33:18;;;;;;;3.70;2.40;;;23.80;90.50;;;;;;5073018;28;20078;-79
2023/07/07 10:35:44;;;;;;;5.78;3.20;;;23.90;90.10;;;;;;5072284;28;20411;-80
2023/07/07 10:38:11;;;;;;;6.85;2.88;;;23.90;88.50;;;;;;5072047;28;20029;-76
2023/07/07 10:40:38;;;;;;;4.55;2.78;;;23.90;88.80;;;;;;5072885;28;20019;-81
2023/07/07 10:43:06;;;;;;;5.00;2.97;;;24.00;88.30;;;;;;5070440;28;20025;-77
2023/07/07 10:45:32;;;;;;;6.25;2.78;;;24.20;88.10;;;;;;5072473;28;20480;-77
2023/07/07 10:47:57;;;;;;;5.40;2.58;;;24.20;87.60;;;;;;5071521;28;20018;-78
2023/07/07 10:50:27;;;;;;;6.13;2.97;;;24.30;87.20;;;;;;5072577;28;20025;-79
2023/07/07 10:53:23;;;;;;;6.45;2.72;;;24.40;87.30;;;;;;5071101;28;20119;-79
2023/07/07 10:56:05;;;;;;;7.68;2.67;;;24.30;87.60;;;;;;5071713;28;20115;-79
2023/07/07 10:58:51;;;;;;;5.32;2.63;;;24.30;87.30;;;;;;5051840;28;20307;-79
2023/07/07 11:01:40;;;;;;;6.70;3.08;;;24.30;87.60;;;;;;5056428;28;20107;-76
2023/07/07 11:04:28;;;;;;;6.80;3.40;;;24.40;87.50;;;;;;5068190;28;20089;-76
2023/07/07 11:06:59;;;;;;;4.57;2.70;;;24.40;85.30;;;;;;5070143;28;20059;-76
2023/07/07 11:09:59;;;;;;;5.85;3.00;;;24.50;85.30;;;;;;5069870;28;20209;-77
2023/07/07 11:12:53;;;;;;;8.60;5.72;;;24.60;85.40;;;;;;5070757;28;20029;-76
2023/07/07 11:15:34;;;;;;;6.45;3.65;;;24.70;85.20;;;;;;5069160;28;20024;-76
2023/07/07 11:18:08;;;;;;;8.10;3.30;;;24.80;84.00;;;;;;5070411;28;20457;-80
2023/07/07 11:20:40;;;;;;;11.05;3.72;;;24.80;83.70;;;;;;5071597;28;20067;-80
2023/07/07 11:23:18;;;;;;;6.35;3.50;;;24.80;83.50;;;;;;5070878;28;20048;-80
2023/07/07 11:26:34;;;;;;;5.30;3.08;;;24.90;82.90;;;;;;5071227;28;20106;-78
2023/07/07 11:29:17;;;;;;;5.50;3.47;;;25.00;83.50;;;;;;5028867;28;20037;-79
2023/07/07 11:32:10;;;;;;;7.88;3.53;;;25.10;82.40;;;;;;5068241;28;20396;-77
2023/07/07 11:34:54;;;;;;;9.80;3.72;;;25.20;84.10;;;;;;5051061;28;20111;-77
2023/07/07 11:37:37;;;;;;;9.43;3.78;;;25.30;83.30;;;;;;5071156;28;20035;-76
2023/07/07 11:40:30;;;;;;;7.18;3.67;;;25.50;84.30;;;;;;5071598;28;20107;-78
2023/07/07 11:43:21;;;;;;;9.30;3.72;;;25.60;82.60;;;;;;5071000;28;20052;-78
2023/07/07 11:46:15;;;;;;;5.57;3.58;;;25.70;79.90;;;;;;5070598;28;20481;-78
2023/07/07 11:48:52;;;;;;;6.35;3.95;;;25.60;79.70;;;;;;5070198;28;20137;-77
2023/07/07 11:51:58;;;;;;;7.65;3.75;;;25.60;80.50;;;;;;5069825;28;20477;-77
2023/07/07 11:54:40;;;;;;;9.75;3.90;;;25.70;78.90;;;;;;5067340;28;20035;-77
2023/07/07 11:57:43;;;;;;;4.97;3.30;;;25.80;77.10;;;;;;5077189;28;20035;-78
2023/07/07 12:00:24;;;;;;;5.88;3.50;;;25.90;75.60;;;;;;5071169;28;20029;-76
2023/07/07 12:02:55;;;;;;;8.82;4.20;;;26.00;74.30;;;;;;5070453;28;20044;-78
2023/07/07 12:05:32;;;;;;;6.22;3.30;;;26.10;74.30;;;;;;5070284;28;20033;-78
2023/07/07 12:08:15;;;;;;;6.53;3.70;;;26.20;76.00;;;;;;5074843;28;20047;-77
2023/07/07 12:10:51;;;;;;;6.75;3.75;;;26.20;75.60;;;;;;5075312;28;20017;-77
2023/07/07 12:13:30;;;;;;;6.90;4.00;;;26.20;76.60;;;;;;5073891;28;20016;-77
2023/07/07 12:16:21;;;;;;;8.05;3.97;;;26.20;74.70;;;;;;5074143;28;20074;-77
2023/07/07 12:18:54;;;;;;;9.48;4.53;;;26.30;71.90;;;;;;5073604;28;20024;-77
2023/07/07 12:21:33;;;;;;;10.70;4.30;;;26.70;71.50;;;;;;5074345;28;20024;-77
2023/07/07 12:24:15;;;;;;;11.82;4.65;;;26.90;71.40;;;;;;5074039;28;20024;-77
2023/07/07 12:27:08;;;;;;;7.93;4.30;;;27.10;67.80;;;;;;5073288;28;20078;-76
2023/07/07 12:29:42;;;;;;;8.50;4.10;;;26.90;68.10;;;;;;5074851;28;20028;-77
2023/07/07 12:32:08;;;;;;;8.48;4.15;;;27.00;67.30;;;;;;5072737;28;20024;-78
2023/07/07 12:34:44;;;;;;;7.10;4.00;;;27.30;66.60;;;;;;5074755;28;20063;-77
2023/07/07 12:37:15;;;;;;;7.85;4.10;;;27.30;65.30;;;;;;5074075;28;20020;-76
2023/07/07 12:40:10;;;;;;;8.20;3.90;;;27.30;65.90;;;;;;5073383;28;20365;-77
2023/07/07 12:42:38;;;;;;;9.00;4.78;;;27.40;65.90;;;;;;5050632;28;20042;-77
2023/07/07 12:45:08;;;;;;;30.10;7.53;;;27.50;64.30;;;;;;5072423;28;20036;-78
2023/07/07 12:47:39;;;;;;;7.45;4.40;;;27.40;63.60;;;;;;5073686;28;20033;-77
2023/07/07 12:50:15;;;;;;;;;;;27.40;62.10;;;;;;5073247;28;20024;-81
2023/07/07 12:52:43;;;;;;;9.95;4.95;;;27.40;61.50;;;;;;5073509;28;20257;-77
2023/07/07 12:55:28;;;;;;;7.90;4.07;;;27.60;61.00;;;;;;5072573;28;20031;-77
2023/07/07 12:58:06;;;;;;;7.38;4.32;;;27.50;59.80;;;;;;5074091;28;20024;-78
2023/07/07 13:00:37;;;;;;;7.32;3.90;;;27.70;61.90;;;;;;5073003;28;20040;-77
2023/07/07 13:03:08;;;;;;;;;;;27.90;63.90;;;;;;5073528;28;20023;-80
2023/07/07 13:05:42;;;;;;;6.60;4.35;;;28.10;63.20;;;;;;5072696;28;19927;-79
2023/07/07 13:08:07;;;;;;;6.85;4.30;;;28.20;60.00;;;;;;5070341;28;20029;-79